sensor_id;sensor_type;location;lat;lon;timestamp;temperature;humidity
22418;DHT22;11376;50.932;4.442;2023-08-07T00:00:35;12.70;99.90
22418;DHT22;11376;50.932;4.442;2023-08-07T00:03:00;12.70;99.90
22418;DHT22;11376;50.932;4.442;2023-08-07T00:05:26;12.80;99.90
22418;DHT22;11376;50.932;4.442;2023-08-07T00:07:52;12.80;99.90
22418;DHT22;11376;50.932;4.442;2023-08-07T00:10:17;12.80;99.90
22418;DHT22;11376;50.932;4.442;2023-08-07T00:12:43;12.80;99.90
22418;DHT22;11376;50.932;4.442;2023-08-07T00:15:10;12.80;99.90
22418;DHT22;11376;50.932;4.442;2023-08-07T00:17:36;12.80;99.90
22418;DHT22;11376;50.932;4.442;2023-08-07T00:20:03;12.80;99.90
22418;DHT22;11376;50.932;4.442;2023-08-07T00:22:28;12.80;99.90
22418;DHT22;11376;50.932;4.442;2023-08-07T00:24:54;12.80;99.90
22418;DHT22;11376;50.932;4.442;2023-08-07T00:27:20;12.80;99.90
22418;DHT22;11376;50.932;4.442;2023-08-07T00:29:45;12.80;99.90
22418;DHT22;11376;50.932;4.442;2023-08-07T00:32:11;12.90;99.90
22418;DHT22;11376;50.932;4.442;2023-08-07T00:34:37;12.80;99.90
22418;DHT22;11376;50.932;4.442;2023-08-07T00:37:02;12.80;99.90
22418;DHT22;11376;50.932;4.442;2023-08-07T00:39:28;12.80;99.90
22418;DHT22;11376;50.932;4.442;2023-08-07T00:41:54;12.80;99.90
22418;DHT22;11376;50.932;4.442;2023-08-07T00:44:20;12.70;99.90
22418;DHT22;11376;50.932;4.442;2023-08-07T00:46:46;12.70;99.90
22418;DHT22;11376;50.932;4.442;2023-08-07T00:49:12;12.80;99.90
22418;DHT22;11376;50.932;4.442;2023-08-07T00:51:38;12.70;99.90
22418;DHT22;11376;50.932;4.442;2023-08-07T00:54:04;12.70;99.90
22418;DHT22;11376;50.932;4.442;2023-08-07T00:56:30;12.70;99.90
22418;DHT22;11376;50.932;4.442;2023-08-07T00:58:57;12.70;99.90
22418;DHT22;11376;50.932;4.442;2023-08-07T01:01:23;12.70;99.90
22418;DHT22;11376;50.932;4.442;2023-08-07T01:03:48;12.70;99.90
22418;DHT22;11376;50.932;4.442;2023-08-07T01:06:14;12.70;99.90
22418;DHT22;11376;50.932;4.442;2023-08-07T01:08:40;12.70;99.90
22418;DHT22;11376;50.932;4.442;2023-08-07T01:13:34;12.60;99.90
22418;DHT22;11376;50.932;4.442;2023-08-07T01:16:01;12.60;99.90
22418;DHT22;11376;50.932;4.442;2023-08-07T01:18:28;12.60;99.90
22418;DHT22;11376;50.932;4.442;2023-08-07T01:20:55;12.50;99.90
22418;DHT22;11376;50.932;4.442;2023-08-07T01:23:21;12.50;99.90
22418;DHT22;11376;50.932;4.442;2023-08-07T01:25:46;12.50;99.90
22418;DHT22;11376;50.932;4.442;2023-08-07T01:28:16;12.50;99.90
22418;DHT22;11376;50.932;4.442;2023-08-07T01:30:44;12.50;99.90
22418;DHT22;11376;50.932;4.442;2023-08-07T01:35:44;12.40;99.90
22418;DHT22;11376;50.932;4.442;2023-08-07T01:38:11;12.40;99.90
22418;DHT22;11376;50.932;4.442;2023-08-07T01:40:37;12.40;99.90
22418;DHT22;11376;50.932;4.442;2023-08-07T01:43:03;12.30;99.90
22418;DHT22;11376;50.932;4.442;2023-08-07T01:45:29;12.30;99.90
22418;DHT22;11376;50.932;4.442;2023-08-07T01:47:55;12.30;99.90
22418;DHT22;11376;50.932;4.442;2023-08-07T01:50:22;12.30;99.90
22418;DHT22;11376;50.932;4.442;2023-08-07T01:52:47;12.30;99.90
22418;DHT22;11376;50.932;4.442;2023-08-07T01:55:14;12.30;99.90
22418;DHT22;11376;50.932;4.442;2023-08-07T01:57:40;12.30;99.90
22418;DHT22;11376;50.932;4.442;2023-08-07T02:00:09;12.20;99.90
22418;DHT22;11376;50.932;4.442;2023-08-07T02:02:35;12.20;99.90
22418;DHT22;11376;50.932;4.442;2023-08-07T02:05:01;12.20;99.90
22418;DHT22;11376;50.932;4.442;2023-08-07T02:07:26;12.20;99.90
22418;DHT22;11376;50.932;4.442;2023-08-07T02:09:52;12.10;99.90
22418;DHT22;11376;50.932;4.442;2023-08-07T02:12:17;12.20;99.90
22418;DHT22;11376;50.932;4.442;2023-08-07T02:14:43;12.20;99.90
22418;DHT22;11376;50.932;4.442;2023-08-07T02:17:09;12.20;99.90
22418;DHT22;11376;50.932;4.442;2023-08-07T02:19:34;12.30;99.90
22418;DHT22;11376;50.932;4.442;2023-08-07T02:22:00;12.30;99.90
22418;DHT22;11376;50.932;4.442;2023-08-07T02:24:26;12.30;99.90
22418;DHT22;11376;50.932;4.442;2023-08-07T02:26:51;12.30;99.90
22418;DHT22;11376;50.932;4.442;2023-08-07T02:29:17;12.30;99.90
22418;DHT22;11376;50.932;4.442;2023-08-07T02:31:43;12.30;99.90
22418;DHT22;11376;50.932;4.442;2023-08-07T02:34:08;12.30;99.90
22418;DHT22;11376;50.932;4.442;2023-08-07T02:36:34;12.30;99.90
22418;DHT22;11376;50.932;4.442;2023-08-07T02:38:59;12.30;99.90
22418;DHT22;11376;50.932;4.442;2023-08-07T02:41:25;12.30;99.90
22418;DHT22;11376;50.932;4.442;2023-08-07T02:43:50;12.30;99.90
22418;DHT22;11376;50.932;4.442;2023-08-07T02:46:16;12.30;99.90
22418;DHT22;11376;50.932;4.442;2023-08-07T02:48:43;12.20;99.90
22418;DHT22;11376;50.932;4.442;2023-08-07T02:51:09;12.20;99.90
22418;DHT22;11376;50.932;4.442;2023-08-07T02:53:35;12.20;99.90
22418;DHT22;11376;50.932;4.442;2023-08-07T02:56:00;12.10;99.90
22418;DHT22;11376;50.932;4.442;2023-08-07T02:58:26;12.10;99.90
22418;DHT22;11376;50.932;4.442;2023-08-07T03:00:51;12.00;99.90
22418;DHT22;11376;50.932;4.442;2023-08-07T03:03:17;12.00;99.90
22418;DHT22;11376;50.932;4.442;2023-08-07T03:05:49;12.00;99.90
22418;DHT22;11376;50.932;4.442;2023-08-07T03:08:15;12.00;99.90
22418;DHT22;11376;50.932;4.442;2023-08-07T03:10:41;12.00;99.90
22418;DHT22;11376;50.932;4.442;2023-08-07T03:13:06;12.00;99.90
22418;DHT22;11376;50.932;4.442;2023-08-07T03:15:32;12.00;99.90
22418;DHT22;11376;50.932;4.442;2023-08-07T03:17:58;12.00;99.90
22418;DHT22;11376;50.932;4.442;2023-08-07T03:20:23;12.00;99.90
22418;DHT22;11376;50.932;4.442;2023-08-07T03:22:49;12.00;99.90
22418;DHT22;11376;50.932;4.442;2023-08-07T03:25:14;12.00;99.90
22418;DHT22;11376;50.932;4.442;2023-08-07T03:27:40;11.90;99.90
22418;DHT22;11376;50.932;4.442;2023-08-07T03:30:06;11.90;99.90
22418;DHT22;11376;50.932;4.442;2023-08-07T03:32:31;11.90;99.90
22418;DHT22;11376;50.932;4.442;2023-08-07T03:34:57;11.90;99.90
22418;DHT22;11376;50.932;4.442;2023-08-07T03:37:22;11.80;99.90
22418;DHT22;11376;50.932;4.442;2023-08-07T03:39:48;11.80;99.90
22418;DHT22;11376;50.932;4.442;2023-08-07T03:42:14;11.80;99.90
22418;DHT22;11376;50.932;4.442;2023-08-07T03:44:40;11.80;99.90
22418;DHT22;11376;50.932;4.442;2023-08-07T03:47:06;11.90;99.90
22418;DHT22;11376;50.932;4.442;2023-08-07T03:49:32;11.90;99.90
22418;DHT22;11376;50.932;4.442;2023-08-07T03:51:57;12.00;99.90
22418;DHT22;11376;50.932;4.442;2023-08-07T03:54:24;12.10;99.90
22418;DHT22;11376;50.932;4.442;2023-08-07T03:56:50;12.20;99.90
22418;DHT22;11376;50.932;4.442;2023-08-07T03:59:16;12.20;99.90
22418;DHT22;11376;50.932;4.442;2023-08-07T04:01:42;12.20;99.90
22418;DHT22;11376;50.932;4.442;2023-08-07T04:04:07;12.20;99.90
22418;DHT22;11376;50.932;4.442;2023-08-07T04:06:33;12.20;99.90
22418;DHT22;11376;50.932;4.442;2023-08-07T04:08:59;12.20;99.90
22418;DHT22;11376;50.932;4.442;2023-08-07T04:11:24;12.10;99.90
22418;DHT22;11376;50.932;4.442;2023-08-07T04:13:50;12.00;99.90
22418;DHT22;11376;50.932;4.442;2023-08-07T04:16:15;12.00;99.90
22418;DHT22;11376;50.932;4.442;2023-08-07T04:18:42;12.00;99.90
22418;DHT22;11376;50.932;4.442;2023-08-07T04:21:07;12.00;99.90
22418;DHT22;11376;50.932;4.442;2023-08-07T04:23:33;12.00;99.90
22418;DHT22;11376;50.932;4.442;2023-08-07T04:25:59;12.00;99.90
22418;DHT22;11376;50.932;4.442;2023-08-07T04:28:27;12.00;99.90
22418;DHT22;11376;50.932;4.442;2023-08-07T04:30:52;12.00;99.90
22418;DHT22;11376;50.932;4.442;2023-08-07T04:33:18;12.00;99.90
22418;DHT22;11376;50.932;4.442;2023-08-07T04:35:44;12.10;99.90
22418;DHT22;11376;50.932;4.442;2023-08-07T04:38:12;12.00;99.90
22418;DHT22;11376;50.932;4.442;2023-08-07T04:40:38;12.00;99.90
22418;DHT22;11376;50.932;4.442;2023-08-07T04:43:08;12.10;99.90
22418;DHT22;11376;50.932;4.442;2023-08-07T04:45:33;12.10;99.90
22418;DHT22;11376;50.932;4.442;2023-08-07T04:47:59;12.10;99.90
22418;DHT22;11376;50.932;4.442;2023-08-07T04:50:25;12.10;99.90
22418;DHT22;11376;50.932;4.442;2023-08-07T04:52:51;12.10;99.90
22418;DHT22;11376;50.932;4.442;2023-08-07T04:55:16;12.20;99.90
22418;DHT22;11376;50.932;4.442;2023-08-07T04:57:42;12.20;99.90
22418;DHT22;11376;50.932;4.442;2023-08-07T05:00:08;12.20;99.90
22418;DHT22;11376;50.932;4.442;2023-08-07T05:02:33;12.20;99.90
22418;DHT22;11376;50.932;4.442;2023-08-07T05:04:59;12.20;99.90
22418;DHT22;11376;50.932;4.442;2023-08-07T05:07:24;12.30;99.90
22418;DHT22;11376;50.932;4.442;2023-08-07T05:09:50;12.30;99.90
22418;DHT22;11376;50.932;4.442;2023-08-07T05:12:16;12.40;99.90
22418;DHT22;11376;50.932;4.442;2023-08-07T05:14:41;12.40;99.90
22418;DHT22;11376;50.932;4.442;2023-08-07T05:17:07;12.50;99.90
22418;DHT22;11376;50.932;4.442;2023-08-07T05:19:32;12.60;99.90
22418;DHT22;11376;50.932;4.442;2023-08-07T05:21:58;12.70;99.90
22418;DHT22;11376;50.932;4.442;2023-08-07T05:24:24;12.80;99.90
22418;DHT22;11376;50.932;4.442;2023-08-07T05:26:49;12.80;99.90
22418;DHT22;11376;50.932;4.442;2023-08-07T05:29:15;12.90;99.90
22418;DHT22;11376;50.932;4.442;2023-08-07T05:31:40;12.90;99.90
22418;DHT22;11376;50.932;4.442;2023-08-07T05:34:06;13.00;99.90
22418;DHT22;11376;50.932;4.442;2023-08-07T05:36:32;13.10;99.90
22418;DHT22;11376;50.932;4.442;2023-08-07T05:38:58;13.10;99.90
22418;DHT22;11376;50.932;4.442;2023-08-07T05:41:23;13.20;99.90
22418;DHT22;11376;50.932;4.442;2023-08-07T05:43:49;13.30;99.90
22418;DHT22;11376;50.932;4.442;2023-08-07T05:46:15;13.30;99.90
22418;DHT22;11376;50.932;4.442;2023-08-07T05:48:40;13.50;99.90
22418;DHT22;11376;50.932;4.442;2023-08-07T05:51:06;13.50;99.90
22418;DHT22;11376;50.932;4.442;2023-08-07T05:53:32;13.60;99.90
22418;DHT22;11376;50.932;4.442;2023-08-07T05:55:58;13.60;99.90
22418;DHT22;11376;50.932;4.442;2023-08-07T05:58:23;13.70;99.90
22418;DHT22;11376;50.932;4.442;2023-08-07T06:00:49;13.80;99.90
22418;DHT22;11376;50.932;4.442;2023-08-07T06:03:14;13.80;99.90
22418;DHT22;11376;50.932;4.442;2023-08-07T06:05:40;13.90;99.90
22418;DHT22;11376;50.932;4.442;2023-08-07T06:08:06;13.90;99.90
22418;DHT22;11376;50.932;4.442;2023-08-07T06:10:31;14.00;99.90
22418;DHT22;11376;50.932;4.442;2023-08-07T06:12:57;14.10;99.90
22418;DHT22;11376;50.932;4.442;2023-08-07T06:15:22;14.10;99.90
22418;DHT22;11376;50.932;4.442;2023-08-07T06:17:48;14.20;99.90
22418;DHT22;11376;50.932;4.442;2023-08-07T06:20:16;14.20;99.90
22418;DHT22;11376;50.932;4.442;2023-08-07T06:22:41;14.40;99.90
22418;DHT22;11376;50.932;4.442;2023-08-07T06:25:07;14.50;99.90
22418;DHT22;11376;50.932;4.442;2023-08-07T06:27:33;14.50;99.90
22418;DHT22;11376;50.932;4.442;2023-08-07T06:29:59;14.60;99.90
22418;DHT22;11376;50.932;4.442;2023-08-07T06:32:25;14.60;99.90
22418;DHT22;11376;50.932;4.442;2023-08-07T06:34:51;14.60;99.90
22418;DHT22;11376;50.932;4.442;2023-08-07T06:37:16;14.60;99.90
22418;DHT22;11376;50.932;4.442;2023-08-07T06:39:42;14.70;99.90
22418;DHT22;11376;50.932;4.442;2023-08-07T06:42:08;14.70;99.90
22418;DHT22;11376;50.932;4.442;2023-08-07T06:44:34;14.80;99.90
22418;DHT22;11376;50.932;4.442;2023-08-07T06:46:59;14.90;99.90
22418;DHT22;11376;50.932;4.442;2023-08-07T06:49:25;15.00;99.90
22418;DHT22;11376;50.932;4.442;2023-08-07T06:51:50;15.10;99.90
22418;DHT22;11376;50.932;4.442;2023-08-07T06:54:16;15.10;99.90
22418;DHT22;11376;50.932;4.442;2023-08-07T06:56:41;15.10;99.90
22418;DHT22;11376;50.932;4.442;2023-08-07T06:59:08;15.30;99.90
22418;DHT22;11376;50.932;4.442;2023-08-07T07:01:34;15.30;99.90
22418;DHT22;11376;50.932;4.442;2023-08-07T07:03:59;15.30;99.90
22418;DHT22;11376;50.932;4.442;2023-08-07T07:06:25;15.40;99.90
22418;DHT22;11376;50.932;4.442;2023-08-07T07:08:51;15.50;99.90
22418;DHT22;11376;50.932;4.442;2023-08-07T07:11:19;15.60;99.90
22418;DHT22;11376;50.932;4.442;2023-08-07T07:13:46;15.70;99.90
22418;DHT22;11376;50.932;4.442;2023-08-07T07:16:12;15.70;99.90
22418;DHT22;11376;50.932;4.442;2023-08-07T07:18:39;15.80;99.90
22418;DHT22;11376;50.932;4.442;2023-08-07T07:21:04;15.80;99.90
22418;DHT22;11376;50.932;4.442;2023-08-07T07:23:30;15.90;99.90
22418;DHT22;11376;50.932;4.442;2023-08-07T07:25:56;15.90;99.90
22418;DHT22;11376;50.932;4.442;2023-08-07T07:28:23;15.90;99.90
22418;DHT22;11376;50.932;4.442;2023-08-07T07:30:52;16.10;99.90
22418;DHT22;11376;50.932;4.442;2023-08-07T07:33:18;16.00;99.90
22418;DHT22;11376;50.932;4.442;2023-08-07T07:35:43;16.10;99.90
22418;DHT22;11376;50.932;4.442;2023-08-07T07:38:10;16.20;99.90
22418;DHT22;11376;50.932;4.442;2023-08-07T07:40:35;16.30;99.90
22418;DHT22;11376;50.932;4.442;2023-08-07T07:43:02;16.30;99.90
22418;DHT22;11376;50.932;4.442;2023-08-07T07:45:28;16.30;99.90
22418;DHT22;11376;50.932;4.442;2023-08-07T07:47:54;16.30;99.90
22418;DHT22;11376;50.932;4.442;2023-08-07T07:50:19;16.40;99.90
22418;DHT22;11376;50.932;4.442;2023-08-07T07:52:45;16.60;99.90
22418;DHT22;11376;50.932;4.442;2023-08-07T07:55:11;16.60;99.90
22418;DHT22;11376;50.932;4.442;2023-08-07T07:57:39;16.70;99.90
22418;DHT22;11376;50.932;4.442;2023-08-07T08:00:05;16.70;99.90
22418;DHT22;11376;50.932;4.442;2023-08-07T08:02:36;16.70;99.90
22418;DHT22;11376;50.932;4.442;2023-08-07T08:05:02;16.70;99.90
22418;DHT22;11376;50.932;4.442;2023-08-07T08:07:28;16.70;99.90
22418;DHT22;11376;50.932;4.442;2023-08-07T08:09:53;16.70;99.90
22418;DHT22;11376;50.932;4.442;2023-08-07T08:12:21;16.80;99.90
22418;DHT22;11376;50.932;4.442;2023-08-07T08:14:47;16.80;99.90
22418;DHT22;11376;50.932;4.442;2023-08-07T08:17:13;16.90;99.90
22418;DHT22;11376;50.932;4.442;2023-08-07T08:19:39;17.00;99.90
22418;DHT22;11376;50.932;4.442;2023-08-07T08:22:05;17.30;99.90
22418;DHT22;11376;50.932;4.442;2023-08-07T08:24:31;17.40;99.90
22418;DHT22;11376;50.932;4.442;2023-08-07T08:26:57;17.20;99.90
22418;DHT22;11376;50.932;4.442;2023-08-07T08:29:23;17.00;99.90
22418;DHT22;11376;50.932;4.442;2023-08-07T08:31:48;17.10;99.90
22418;DHT22;11376;50.932;4.442;2023-08-07T08:34:14;17.30;99.90
22418;DHT22;11376;50.932;4.442;2023-08-07T08:36:40;17.50;99.90
22418;DHT22;11376;50.932;4.442;2023-08-07T08:39:06;17.60;99.90
22418;DHT22;11376;50.932;4.442;2023-08-07T08:41:32;17.70;99.90
22418;DHT22;11376;50.932;4.442;2023-08-07T08:43:59;17.70;99.90
22418;DHT22;11376;50.932;4.442;2023-08-07T08:46:28;17.70;99.90
22418;DHT22;11376;50.932;4.442;2023-08-07T08:48:57;17.50;99.90
22418;DHT22;11376;50.932;4.442;2023-08-07T08:51:24;17.60;99.90
22418;DHT22;11376;50.932;4.442;2023-08-07T08:53:52;17.90;99.90
22418;DHT22;11376;50.932;4.442;2023-08-07T08:56:19;17.60;99.90
22418;DHT22;11376;50.932;4.442;2023-08-07T08:58:51;17.40;99.90
22418;DHT22;11376;50.932;4.442;2023-08-07T09:01:17;17.60;99.90
22418;DHT22;11376;50.932;4.442;2023-08-07T09:03:44;17.80;99.90
22418;DHT22;11376;50.932;4.442;2023-08-07T09:06:12;18.00;99.90
22418;DHT22;11376;50.932;4.442;2023-08-07T09:08:42;18.10;99.90
22418;DHT22;11376;50.932;4.442;2023-08-07T09:11:12;18.30;99.90
22418;DHT22;11376;50.932;4.442;2023-08-07T09:13:38;18.30;99.90
22418;DHT22;11376;50.932;4.442;2023-08-07T09:16:07;18.20;99.90
22418;DHT22;11376;50.932;4.442;2023-08-07T09:18:34;18.10;99.90
22418;DHT22;11376;50.932;4.442;2023-08-07T09:21:00;18.10;99.90
22418;DHT22;11376;50.932;4.442;2023-08-07T09:23:26;18.30;99.90
22418;DHT22;11376;50.932;4.442;2023-08-07T09:26:05;18.00;99.90
22418;DHT22;11376;50.932;4.442;2023-08-07T09:28:32;18.10;99.90
22418;DHT22;11376;50.932;4.442;2023-08-07T09:30:59;18.20;99.90
22418;DHT22;11376;50.932;4.442;2023-08-07T09:33:28;18.50;99.90
22418;DHT22;11376;50.932;4.442;2023-08-07T09:36:00;18.70;99.90
22418;DHT22;11376;50.932;4.442;2023-08-07T09:38:30;18.70;99.90
22418;DHT22;11376;50.932;4.442;2023-08-07T09:40:59;19.00;99.90
22418;DHT22;11376;50.932;4.442;2023-08-07T09:43:25;19.10;99.90
22418;DHT22;11376;50.932;4.442;2023-08-07T09:45:50;19.20;99.90
22418;DHT22;11376;50.932;4.442;2023-08-07T09:48:22;18.90;99.90
22418;DHT22;11376;50.932;4.442;2023-08-07T09:50:49;18.70;99.90
22418;DHT22;11376;50.932;4.442;2023-08-07T09:53:14;18.80;99.90
22418;DHT22;11376;50.932;4.442;2023-08-07T09:55:40;18.80;99.90
22418;DHT22;11376;50.932;4.442;2023-08-07T09:58:08;18.90;99.90
22418;DHT22;11376;50.932;4.442;2023-08-07T10:00:35;19.10;99.90
22418;DHT22;11376;50.932;4.442;2023-08-07T10:03:02;19.50;99.90
22418;DHT22;11376;50.932;4.442;2023-08-07T10:05:28;19.40;99.90
22418;DHT22;11376;50.932;4.442;2023-08-07T10:07:54;19.00;99.90
22418;DHT22;11376;50.932;4.442;2023-08-07T10:10:21;18.80;99.90
22418;DHT22;11376;50.932;4.442;2023-08-07T10:12:48;18.90;99.90
22418;DHT22;11376;50.932;4.442;2023-08-07T10:15:15;18.90;99.90
22418;DHT22;11376;50.932;4.442;2023-08-07T10:17:41;19.00;99.90
22418;DHT22;11376;50.932;4.442;2023-08-07T10:20:07;19.00;99.90
22418;DHT22;11376;50.932;4.442;2023-08-07T10:22:34;19.10;99.90
22418;DHT22;11376;50.932;4.442;2023-08-07T10:25:03;19.00;99.90
22418;DHT22;11376;50.932;4.442;2023-08-07T10:27:34;18.90;99.90
22418;DHT22;11376;50.932;4.442;2023-08-07T10:30:02;19.10;99.90
22418;DHT22;11376;50.932;4.442;2023-08-07T10:32:30;19.50;99.90
22418;DHT22;11376;50.932;4.442;2023-08-07T10:34:56;19.60;99.90
22418;DHT22;11376;50.932;4.442;2023-08-07T10:37:43;19.80;99.90
22418;DHT22;11376;50.932;4.442;2023-08-07T10:40:11;19.40;99.90
22418;DHT22;11376;50.932;4.442;2023-08-07T10:42:56;19.50;99.90
22418;DHT22;11376;50.932;4.442;2023-08-07T10:45:26;19.60;99.90
22418;DHT22;11376;50.932;4.442;2023-08-07T10:48:01;19.70;99.90
22418;DHT22;11376;50.932;4.442;2023-08-07T10:50:31;19.80;99.90
22418;DHT22;11376;50.932;4.442;2023-08-07T10:53:00;19.60;99.90
22418;DHT22;11376;50.932;4.442;2023-08-07T10:55:26;20.00;99.90
22418;DHT22;11376;50.932;4.442;2023-08-07T10:57:53;20.50;99.90
22418;DHT22;11376;50.932;4.442;2023-08-07T11:00:25;20.70;99.90
22418;DHT22;11376;50.932;4.442;2023-08-07T11:02:52;20.30;99.90
22418;DHT22;11376;50.932;4.442;2023-08-07T11:05:18;21.00;99.90
22418;DHT22;11376;50.932;4.442;2023-08-07T11:07:45;22.30;99.90
22418;DHT22;11376;50.932;4.442;2023-08-07T11:10:13;23.20;99.90
22418;DHT22;11376;50.932;4.442;2023-08-07T11:12:43;23.40;99.90
22418;DHT22;11376;50.932;4.442;2023-08-07T11:15:12;22.60;99.90
22418;DHT22;11376;50.932;4.442;2023-08-07T11:17:38;21.50;99.90
22418;DHT22;11376;50.932;4.442;2023-08-07T11:20:07;21.50;99.90
22418;DHT22;11376;50.932;4.442;2023-08-07T11:22:33;22.70;99.90
22418;DHT22;11376;50.932;4.442;2023-08-07T11:24:58;23.00;99.90
22418;DHT22;11376;50.932;4.442;2023-08-07T11:27:24;23.00;99.90
22418;DHT22;11376;50.932;4.442;2023-08-07T11:29:50;22.90;99.90
22418;DHT22;11376;50.932;4.442;2023-08-07T11:32:17;22.60;99.90
22418;DHT22;11376;50.932;4.442;2023-08-07T11:34:49;21.90;99.90
22418;DHT22;11376;50.932;4.442;2023-08-07T11:37:19;21.30;99.90
22418;DHT22;11376;50.932;4.442;2023-08-07T11:39:44;20.90;99.90
22418;DHT22;11376;50.932;4.442;2023-08-07T11:42:10;21.40;99.90
22418;DHT22;11376;50.932;4.442;2023-08-07T11:44:36;23.00;99.90
22418;DHT22;11376;50.932;4.442;2023-08-07T11:47:02;22.50;99.90
22418;DHT22;11376;50.932;4.442;2023-08-07T11:49:28;21.50;99.90
22418;DHT22;11376;50.932;4.442;2023-08-07T11:51:54;20.50;99.90
22418;DHT22;11376;50.932;4.442;2023-08-07T11:54:21;20.60;99.90
22418;DHT22;11376;50.932;4.442;2023-08-07T11:56:47;20.80;99.90
22418;DHT22;11376;50.932;4.442;2023-08-07T11:59:16;22.20;99.90
22418;DHT22;11376;50.932;4.442;2023-08-07T12:01:42;23.30;99.90
22418;DHT22;11376;50.932;4.442;2023-08-07T12:04:09;23.10;99.90
22418;DHT22;11376;50.932;4.442;2023-08-07T12:06:35;22.50;99.90
22418;DHT22;11376;50.932;4.442;2023-08-07T12:09:02;21.70;99.90
22418;DHT22;11376;50.932;4.442;2023-08-07T12:11:31;21.00;99.90
22418;DHT22;11376;50.932;4.442;2023-08-07T12:14:00;20.50;99.90
22418;DHT22;11376;50.932;4.442;2023-08-07T12:16:32;20.60;99.90
22418;DHT22;11376;50.932;4.442;2023-08-07T12:18:58;20.40;99.90
22418;DHT22;11376;50.932;4.442;2023-08-07T12:21:26;22.30;99.90
22418;DHT22;11376;50.932;4.442;2023-08-07T12:23:56;23.80;99.90
22418;DHT22;11376;50.932;4.442;2023-08-07T12:26:22;25.00;99.90
22418;DHT22;11376;50.932;4.442;2023-08-07T12:28:48;25.70;99.90
22418;DHT22;11376;50.932;4.442;2023-08-07T12:31:14;25.20;99.90
22418;DHT22;11376;50.932;4.442;2023-08-07T12:33:40;23.90;99.90
22418;DHT22;11376;50.932;4.442;2023-08-07T12:36:06;24.20;99.90
22418;DHT22;11376;50.932;4.442;2023-08-07T12:38:33;25.10;99.90
22418;DHT22;11376;50.932;4.442;2023-08-07T12:40:59;23.50;99.90
22418;DHT22;11376;50.932;4.442;2023-08-07T12:43:25;22.30;99.90
22418;DHT22;11376;50.932;4.442;2023-08-07T12:45:52;22.40;99.90
22418;DHT22;11376;50.932;4.442;2023-08-07T12:48:18;24.30;99.90
22418;DHT22;11376;50.932;4.442;2023-08-07T12:50:45;26.60;99.90
22418;DHT22;11376;50.932;4.442;2023-08-07T12:53:11;27.40;97.90
22418;DHT22;11376;50.932;4.442;2023-08-07T12:55:36;26.20;99.80
22418;DHT22;11376;50.932;4.442;2023-08-07T12:58:02;25.40;99.90
22418;DHT22;11376;50.932;4.442;2023-08-07T13:00:28;26.30;99.90
22418;DHT22;11376;50.932;4.442;2023-08-07T13:02:53;27.30;95.80
22418;DHT22;11376;50.932;4.442;2023-08-07T13:05:21;26.90;94.90
22418;DHT22;11376;50.932;4.442;2023-08-07T13:07:48;25.90;98.40
22418;DHT22;11376;50.932;4.442;2023-08-07T13:10:16;26.10;98.20
22418;DHT22;11376;50.932;4.442;2023-08-07T13:12:43;25.50;97.50
22418;DHT22;11376;50.932;4.442;2023-08-07T13:15:13;25.80;97.20
22418;DHT22;11376;50.932;4.442;2023-08-07T13:17:39;26.30;98.50
22418;DHT22;11376;50.932;4.442;2023-08-07T13:20:06;26.80;95.60
22418;DHT22;11376;50.932;4.442;2023-08-07T13:22:36;27.10;95.60
22418;DHT22;11376;50.932;4.442;2023-08-07T13:25:02;26.00;94.50
22418;DHT22;11376;50.932;4.442;2023-08-07T13:27:31;26.90;95.40
22418;DHT22;11376;50.932;4.442;2023-08-07T13:29:57;26.50;92.80
22418;DHT22;11376;50.932;4.442;2023-08-07T13:32:23;24.20;99.90
22418;DHT22;11376;50.932;4.442;2023-08-07T13:34:49;23.50;99.90
22418;DHT22;11376;50.932;4.442;2023-08-07T13:37:14;23.00;99.90
22418;DHT22;11376;50.932;4.442;2023-08-07T13:39:41;22.80;99.90
22418;DHT22;11376;50.932;4.442;2023-08-07T13:42:07;24.50;99.90
22418;DHT22;11376;50.932;4.442;2023-08-07T13:44:33;24.20;99.90
22418;DHT22;11376;50.932;4.442;2023-08-07T13:46:59;24.10;99.90
22418;DHT22;11376;50.932;4.442;2023-08-07T13:49:24;24.70;99.90
22418;DHT22;11376;50.932;4.442;2023-08-07T13:51:50;26.10;96.90
22418;DHT22;11376;50.932;4.442;2023-08-07T13:54:16;26.20;95.60
22418;DHT22;11376;50.932;4.442;2023-08-07T13:56:42;26.20;95.10
22418;DHT22;11376;50.932;4.442;2023-08-07T13:59:08;25.40;96.50
22418;DHT22;11376;50.932;4.442;2023-08-07T14:01:35;24.30;99.90
22418;DHT22;11376;50.932;4.442;2023-08-07T14:04:02;23.20;99.90
22418;DHT22;11376;50.932;4.442;2023-08-07T14:06:27;22.20;99.90
22418;DHT22;11376;50.932;4.442;2023-08-07T14:08:53;23.20;99.90
22418;DHT22;11376;50.932;4.442;2023-08-07T14:11:19;24.70;99.90
22418;DHT22;11376;50.932;4.442;2023-08-07T14:13:46;25.80;99.90
22418;DHT22;11376;50.932;4.442;2023-08-07T14:16:13;27.30;97.30
22418;DHT22;11376;50.932;4.442;2023-08-07T14:18:38;27.40;96.70
22418;DHT22;11376;50.932;4.442;2023-08-07T14:21:04;26.60;94.90
22418;DHT22;11376;50.932;4.442;2023-08-07T14:23:30;26.20;95.70
22418;DHT22;11376;50.932;4.442;2023-08-07T14:25:56;25.40;96.70
22418;DHT22;11376;50.932;4.442;2023-08-07T14:28:22;25.90;97.50
22418;DHT22;11376;50.932;4.442;2023-08-07T14:30:48;26.60;95.20
22418;DHT22;11376;50.932;4.442;2023-08-07T14:33:13;26.60;95.90
22418;DHT22;11376;50.932;4.442;2023-08-07T14:35:39;27.00;94.30
22418;DHT22;11376;50.932;4.442;2023-08-07T14:38:05;25.20;95.90
22418;DHT22;11376;50.932;4.442;2023-08-07T14:40:31;25.00;96.90
22418;DHT22;11376;50.932;4.442;2023-08-07T14:42:56;24.50;99.50
22418;DHT22;11376;50.932;4.442;2023-08-07T14:45:22;24.60;99.40
22418;DHT22;11376;50.932;4.442;2023-08-07T14:47:49;23.90;99.60
22418;DHT22;11376;50.932;4.442;2023-08-07T14:50:16;23.40;99.90
22418;DHT22;11376;50.932;4.442;2023-08-07T14:52:44;23.90;99.90
22418;DHT22;11376;50.932;4.442;2023-08-07T14:55:10;24.00;99.90
22418;DHT22;11376;50.932;4.442;2023-08-07T14:57:36;23.30;99.90
22418;DHT22;11376;50.932;4.442;2023-08-07T15:00:01;23.00;99.90
22418;DHT22;11376;50.932;4.442;2023-08-07T15:02:28;22.30;99.90
22418;DHT22;11376;50.932;4.442;2023-08-07T15:04:53;22.20;99.90
22418;DHT22;11376;50.932;4.442;2023-08-07T15:07:19;21.90;99.90
22418;DHT22;11376;50.932;4.442;2023-08-07T15:09:45;22.10;99.90
22418;DHT22;11376;50.932;4.442;2023-08-07T15:12:11;22.50;99.90
22418;DHT22;11376;50.932;4.442;2023-08-07T15:14:36;23.00;99.90
22418;DHT22;11376;50.932;4.442;2023-08-07T15:17:03;22.90;99.90
22418;DHT22;11376;50.932;4.442;2023-08-07T15:19:28;23.20;99.90
22418;DHT22;11376;50.932;4.442;2023-08-07T15:21:54;23.80;99.90
22418;DHT22;11376;50.932;4.442;2023-08-07T15:24:20;24.10;99.90
22418;DHT22;11376;50.932;4.442;2023-08-07T15:26:46;24.40;99.90
22418;DHT22;11376;50.932;4.442;2023-08-07T15:29:11;24.50;99.90